Time;durP1;ratioP1;P1;durP2;ratioP2;P2;SDS_P1;SDS_P2;PMS_P1;PMS_P2;Temp;Humidity;BMP_temperature;BMP_pressure;BME280_temperature;BME280_humidity;BME280_pressure;Samples;Min_cycle;Max_cycle;Signal;HPM_P1;HPM_P2
2021/10/30 00:01:06;;;;;;;21.00;8.90;;;13.40;41.80;;;;;;5049815;28;20176;-78
2021/10/30 00:03:32;;;;;;;14.87;9.07;;;13.40;41.80;;;;;;5049499;28;20187;-78
2021/10/30 00:05:58;;;;;;;17.97;9.50;;;13.30;42.00;;;;;;5053030;28;20208;-78
2021/10/30 00:08:28;;;;;;;11.47;8.17;;;13.30;42.40;;;;;;5052131;28;20180;-78
2021/10/30 00:10:53;;;;;;;14.30;8.27;;;13.30;42.60;;;;;;5047123;28;20203;-78
2021/10/30 00:13:19;;;;;;;11.93;7.70;;;13.30;42.00;;;;;;5049942;28;20473;-78
2021/10/30 00:15:44;;;;;;;13.33;8.33;;;13.30;41.90;;;;;;5041879;28;20188;-79
2021/10/30 00:18:10;;;;;;;13.17;8.33;;;13.40;42.30;;;;;;5040941;28;20651;-79
2021/10/30 00:20:35;;;;;;;11.17;8.17;;;13.30;42.30;;;;;;5040075;28;20270;-79
2021/10/30 00:23:02;;;;;;;9.97;7.40;;;13.30;41.90;;;;;;5039227;28;20184;-79
2021/10/30 00:25:28;;;;;;;10.57;7.77;;;13.40;41.70;;;;;;5042787;28;20182;-78
2021/10/30 00:27:54;;;;;;;14.33;7.70;;;13.30;42.20;;;;;;5038824;28;20427;-77
2021/10/30 00:30:19;;;;;;;13.00;8.57;;;13.30;41.30;;;;;;5036067;28;20203;-77
2021/10/30 00:32:45;;;;;;;14.57;9.00;;;13.30;41.80;;;;;;5038815;28;20188;-78
2021/10/30 00:35:10;;;;;;;14.93;8.00;;;13.20;43.00;;;;;;5036041;28;20204;-77
2021/10/30 00:37:36;;;;;;;17.03;7.80;;;13.10;42.90;;;;;;5034698;28;20171;-77
2021/10/30 00:40:03;;;;;;;11.07;7.90;;;13.10;43.00;;;;;;5034438;28;20188;-77
2021/10/30 00:42:29;;;;;;;18.90;7.90;;;13.10;43.50;;;;;;5033912;28;20171;-77
2021/10/30 00:44:54;;;;;;;13.90;8.00;;;13.10;42.70;;;;;;5037061;28;21141;-78
2021/10/30 00:47:20;;;;;;;13.97;8.63;;;13.10;42.80;;;;;;5033304;28;20172;-77
2021/10/30 00:49:45;;;;;;;15.50;8.50;;;13.10;43.10;;;;;;5034293;28;20203;-78
2021/10/30 00:52:14;;;;;;;13.23;7.57;;;13.10;43.30;;;;;;5034825;28;20198;-77
2021/10/30 00:54:43;;;;;;;9.60;6.83;;;13.20;42.40;;;;;;5035165;28;20286;-78
2021/10/30 00:57:11;;;;;;;10.60;7.97;;;13.20;42.50;;;;;;5039536;28;20501;-78
2021/10/30 00:59:36;;;;;;;14.70;8.50;;;13.20;43.10;;;;;;5034844;28;20430;-77
2021/10/30 01:02:03;;;;;;;13.83;8.47;;;13.30;42.10;;;;;;5033940;28;20888;-77
2021/10/30 01:04:30;;;;;;;11.80;7.17;;;13.30;42.60;;;;;;5034173;28;20290;-77
2021/10/30 01:06:58;;;;;;;18.10;8.70;;;13.20;42.30;;;;;;5032859;28;20483;-76
2021/10/30 01:09:24;;;;;;;11.97;7.07;;;13.20;42.00;;;;;;5033126;28;20446;-76
2021/10/30 01:11:51;;;;;;;14.60;8.77;;;13.20;41.90;;;;;;5032659;28;20625;-76
2021/10/30 01:14:18;;;;;;;14.77;8.00;;;13.10;42.10;;;;;;5032965;28;20927;-76
2021/10/30 01:17:05;;;;;;;14.93;7.17;;;13.00;42.70;;;;;;5033420;28;20415;-76
2021/10/30 01:19:31;;;;;;;11.67;7.07;;;13.00;43.20;;;;;;5032896;28;20446;-75
2021/10/30 01:21:58;;;;;;;12.70;7.97;;;12.90;43.50;;;;;;5031634;28;20426;-74
2021/10/30 01:24:23;;;;;;;15.20;8.63;;;12.80;43.40;;;;;;5031480;28;20422;-75
2021/10/30 01:26:50;;;;;;;15.43;8.13;;;12.80;43.80;;;;;;5017039;28;20431;-75
2021/10/30 01:29:15;;;;;;;15.17;8.23;;;12.80;43.80;;;;;;5012193;28;20287;-74
2021/10/30 01:31:41;;;;;;;13.50;7.90;;;12.80;43.40;;;;;;5039758;28;20838;-76
2021/10/30 01:34:08;;;;;;;10.60;7.00;;;12.80;44.00;;;;;;5031514;28;20207;-75
2021/10/30 01:36:35;;;;;;;12.80;7.13;;;12.80;43.40;;;;;;5031792;28;20187;-75
2021/10/30 01:39:02;;;;;;;15.37;7.13;;;12.80;43.30;;;;;;5035517;28;20476;-75
2021/10/30 01:41:28;;;;;;;13.20;8.07;;;12.90;42.70;;;;;;5035371;28;20426;-75
2021/10/30 01:43:58;;;;;;;8.77;6.50;;;12.90;42.50;;;;;;5035920;28;20426;-75
2021/10/30 01:46:25;;;;;;;15.80;7.70;;;13.00;42.30;;;;;;5035697;28;20184;-75
2021/10/30 01:48:51;;;;;;;17.80;7.50;;;12.90;42.50;;;;;;5034069;28;21007;-76
2021/10/30 01:51:17;;;;;;;15.07;7.90;;;12.90;42.30;;;;;;5035863;28;20943;-74
2021/10/30 01:53:43;;;;;;;12.53;7.23;;;12.80;42.50;;;;;;5035268;28;21052;-75
2021/10/30 01:56:10;;;;;;;11.03;7.47;;;12.80;42.80;;;;;;5035277;28;20433;-74
2021/10/30 01:58:36;;;;;;;13.37;7.63;;;12.80;43.50;;;;;;5034791;28;20473;-75
2021/10/30 02:01:03;;;;;;;10.13;7.10;;;12.80;42.60;;;;;;5034695;28;20422;-75
2021/10/30 02:03:31;;;;;;;15.97;7.53;;;12.80;42.90;;;;;;5034511;28;20489;-75
2021/10/30 02:05:57;;;;;;;11.17;7.93;;;12.80;42.70;;;;;;5034894;28;20480;-76
2021/10/30 02:08:23;;;;;;;9.30;7.20;;;12.80;42.90;;;;;;5034861;28;20499;-76
2021/10/30 02:10:49;;;;;;;10.70;7.63;;;12.80;43.10;;;;;;5034458;28;20442;-76
2021/10/30 02:13:15;;;;;;;13.10;7.00;;;12.80;43.70;;;;;;5034405;28;20789;-75
2021/10/30 02:15:41;;;;;;;9.13;6.83;;;12.70;44.10;;;;;;5035316;28;20441;-75
2021/10/30 02:18:07;;;;;;;10.30;7.50;;;12.70;43.90;;;;;;5039806;28;20410;-76
2021/10/30 02:20:33;;;;;;;21.23;6.73;;;12.60;44.60;;;;;;5042149;28;20454;-75
2021/10/30 02:22:59;;;;;;;13.53;7.33;;;12.60;44.50;;;;;;5039773;28;20418;-76
2021/10/30 02:25:25;;;;;;;13.57;8.10;;;12.70;44.50;;;;;;5031367;28;20172;-76
2021/10/30 02:27:51;;;;;;;9.80;6.37;;;12.60;44.50;;;;;;5014074;28;20184;-76
2021/10/30 02:30:16;;;;;;;12.20;7.00;;;12.70;43.70;;;;;;5031898;28;20448;-75
2021/10/30 02:32:43;;;;;;;8.90;6.07;;;12.70;43.80;;;;;;5034897;28;20168;-76
2021/10/30 02:35:09;;;;;;;12.07;6.63;;;12.60;44.20;;;;;;5039235;28;20238;-75
2021/10/30 02:37:36;;;;;;;12.13;7.33;;;12.60;44.20;;;;;;5040641;28;20406;-76
2021/10/30 02:40:02;;;;;;;12.90;6.37;;;12.60;44.60;;;;;;5038852;28;20465;-76
2021/10/30 02:42:28;;;;;;;12.20;6.60;;;12.60;44.60;;;;;;5032240;28;20798;-76
2021/10/30 02:44:53;;;;;;;9.13;6.60;;;12.60;44.30;;;;;;5034090;28;20435;-76
2021/10/30 02:47:19;;;;;;;8.53;5.80;;;12.60;43.90;;;;;;5033911;28;20175;-76
2021/10/30 02:49:44;;;;;;;12.60;7.03;;;12.70;44.20;;;;;;5033881;28;20191;-76
2021/10/30 02:52:10;;;;;;;12.43;6.63;;;12.70;43.70;;;;;;5034406;28;20262;-77
2021/10/30 02:54:36;;;;;;;11.10;6.90;;;12.60;43.80;;;;;;5041010;28;20569;-76
2021/10/30 02:57:02;;;;;;;10.67;6.83;;;12.70;44.20;;;;;;5039933;28;20255;-76
2021/10/30 02:59:28;;;;;;;20.00;8.17;;;12.70;43.80;;;;;;5039604;28;20564;-76
2021/10/30 03:01:53;;;;;;;9.97;6.33;;;12.60;44.00;;;;;;5037331;28;20456;-76
2021/10/30 03:04:19;;;;;;;14.07;7.40;;;12.60;43.80;;;;;;5036293;28;20183;-77
2021/10/30 03:06:44;;;;;;;9.00;6.50;;;12.70;43.70;;;;;;5033516;28;20689;-75
2021/10/30 03:09:11;;;;;;;12.20;6.73;;;12.70;44.00;;;;;;5034353;28;20298;-75
2021/10/30 03:11:37;;;;;;;10.00;6.73;;;12.60;44.40;;;;;;5033396;28;20986;-75
2021/10/30 03:14:03;;;;;;;11.10;7.17;;;12.60;44.50;;;;;;5034339;28;20298;-75
2021/10/30 03:16:28;;;;;;;12.53;7.10;;;12.70;44.00;;;;;;5034094;28;20260;-77
2021/10/30 03:18:54;;;;;;;11.97;6.90;;;12.60;43.90;;;;;;5032233;28;20462;-76
2021/10/30 03:21:20;;;;;;;8.07;5.73;;;12.60;44.80;;;;;;5024968;28;20268;-77
2021/10/30 03:23:46;;;;;;;11.10;6.30;;;12.60;44.20;;;;;;5028424;28;20458;-78
2021/10/30 03:26:11;;;;;;;8.60;6.20;;;12.60;44.50;;;;;;5030776;28;20279;-76
2021/10/30 03:28:37;;;;;;;8.53;6.27;;;12.60;44.20;;;;;;5022488;28;20176;-77
2021/10/30 03:31:03;;;;;;;9.10;6.10;;;12.60;43.90;;;;;;5039184;28;20644;-77
2021/10/30 03:33:28;;;;;;;18.00;6.90;;;12.60;43.70;;;;;;5033221;28;20278;-77
2021/10/30 03:35:54;;;;;;;12.00;5.93;;;12.70;42.90;;;;;;5034644;28;20168;-76
2021/10/30 03:38:20;;;;;;;11.87;6.23;;;12.70;43.30;;;;;;5034775;28;20687;-77
2021/10/30 03:40:46;;;;;;;13.90;6.20;;;12.80;43.00;;;;;;5039479;28;20207;-77
2021/10/30 03:43:11;;;;;;;11.00;5.60;;;12.80;42.00;;;;;;5043376;28;20418;-77
2021/10/30 03:45:37;;;;;;;8.63;6.10;;;12.90;41.40;;;;;;5048313;28;20202;-76
2021/10/30 03:48:10;;;;;;;12.87;7.10;;;13.00;41.60;;;;;;5039653;28;20176;-75
2021/10/30 03:50:37;;;;;;;11.00;6.43;;;12.90;42.10;;;;;;5034161;28;20988;-77
2021/10/30 03:53:03;;;;;;;10.80;6.40;;;13.00;41.90;;;;;;5032890;28;20458;-76
2021/10/30 03:55:30;;;;;;;11.50;6.47;;;13.00;42.30;;;;;;5034041;28;20992;-76
2021/10/30 03:57:55;;;;;;;10.97;6.77;;;13.00;43.30;;;;;;5034212;28;20452;-77
2021/10/30 04:00:21;;;;;;;9.27;7.03;;;12.90;44.80;;;;;;5032846;28;20529;-77
2021/10/30 04:02:47;;;;;;;13.60;5.73;;;12.90;46.80;;;;;;5034367;28;20172;-78
2021/10/30 04:05:13;;;;;;;11.70;7.30;;;12.90;47.00;;;;;;5036574;28;20187;-78
2021/10/30 04:07:39;;;;;;;8.97;7.10;;;12.80;49.90;;;;;;5035661;28;20194;-77
2021/10/30 04:10:05;;;;;;;9.87;6.70;;;12.80;51.90;;;;;;5035600;28;20450;-78
2021/10/30 04:12:31;;;;;;;12.37;6.60;;;12.70;53.30;;;;;;5033143;28;20493;-77
2021/10/30 04:14:56;;;;;;;15.20;7.60;;;12.70;54.30;;;;;;5034704;28;20493;-77
2021/10/30 04:17:22;;;;;;;12.83;7.77;;;12.60;56.50;;;;;;5037798;28;20168;-77
2021/10/30 04:19:47;;;;;;;12.17;6.93;;;12.50;57.50;;;;;;5051722;28;20752;-76
2021/10/30 04:22:13;;;;;;;11.47;6.90;;;12.50;58.50;;;;;;5034410;28;20198;-77
2021/10/30 04:24:39;;;;;;;12.33;6.70;;;12.40;60.20;;;;;;5035676;28;20225;-77
2021/10/30 04:27:04;;;;;;;11.20;7.50;;;12.40;62.20;;;;;;5032065;28;20199;-77
2021/10/30 04:29:30;;;;;;;10.23;7.20;;;12.40;62.40;;;;;;5033888;28;20207;-77
2021/10/30 04:31:58;;;;;;;10.80;7.10;;;12.30;65.40;;;;;;5050854;28;20207;-76
2021/10/30 04:34:33;;;;;;;13.07;8.63;;;12.30;64.60;;;;;;5031016;28;20458;-77
2021/10/30 04:37:02;;;;;;;10.30;7.30;;;12.30;66.80;;;;;;5031765;28;20915;-77
2021/10/30 04:39:27;;;;;;;13.63;7.73;;;12.30;68.50;;;;;;5031966;28;20625;-77
2021/10/30 04:41:53;;;;;;;14.47;7.97;;;12.20;69.50;;;;;;5032196;28;20414;-77
2021/10/30 04:44:18;;;;;;;10.90;7.73;;;12.20;71.90;;;;;;5048273;28;20253;-76
2021/10/30 04:46:44;;;;;;;17.23;9.50;;;12.20;72.90;;;;;;5033209;28;20172;-76
2021/10/30 04:49:09;;;;;;;20.73;8.50;;;12.10;74.20;;;;;;5030682;28;20298;-76
2021/10/30 04:51:35;;;;;;;13.40;7.70;;;12.10;73.70;;;;;;5031689;28;20180;-78
2021/10/30 04:54:01;;;;;;;13.67;8.80;;;12.10;74.60;;;;;;5030976;28;20520;-76
2021/10/30 04:56:26;;;;;;;19.07;8.33;;;12.10;74.60;;;;;;5031844;28;20175;-76
2021/10/30 04:58:52;;;;;;;12.27;8.47;;;12.00;75.90;;;;;;5033478;28;20199;-76
2021/10/30 05:01:17;;;;;;;16.73;8.27;;;12.10;76.00;;;;;;5035557;28;20262;-77
2021/10/30 05:03:44;;;;;;;12.30;8.80;;;12.00;78.40;;;;;;5035643;28;20548;-77
2021/10/30 05:06:11;;;;;;;12.50;8.40;;;12.00;76.60;;;;;;5037807;28;20190;-77
2021/10/30 05:08:37;;;;;;;16.73;9.00;;;12.00;78.20;;;;;;5038155;28;20925;-77
2021/10/30 05:11:03;;;;;;;13.30;8.07;;;12.00;78.30;;;;;;5039799;28;20414;-76
2021/10/30 05:13:30;;;;;;;11.53;8.30;;;12.00;77.20;;;;;;5042814;28;20415;-77
2021/10/30 05:15:55;;;;;;;12.60;8.93;;;12.00;79.40;;;;;;5043189;28;20424;-78
2021/10/30 05:18:22;;;;;;;11.70;7.53;;;12.00;79.70;;;;;;5040097;28;20533;-76
2021/10/30 05:20:48;;;;;;;13.73;7.80;;;12.00;80.60;;;;;;5039949;28;20618;-77
2021/10/30 05:23:13;;;;;;;24.63;8.97;;;12.00;78.60;;;;;;5047758;28;20474;-78
2021/10/30 05:25:39;;;;;;;13.83;8.33;;;11.90;80.00;;;;;;5049267;28;20410;-77
2021/10/30 05:28:05;;;;;;;11.77;7.73;;;11.90;79.90;;;;;;5038635;28;20221;-77
2021/10/30 05:30:31;;;;;;;19.43;8.90;;;11.90;81.20;;;;;;5048898;28;20199;-77
2021/10/30 05:32:56;;;;;;;13.77;8.27;;;11.90;83.10;;;;;;5047427;28;20214;-77
2021/10/30 05:35:22;;;;;;;12.40;8.10;;;11.90;80.10;;;;;;5041908;28;20986;-77
2021/10/30 05:37:47;;;;;;;13.33;8.47;;;11.90;80.80;;;;;;5041875;28;20176;-76
2021/10/30 05:40:13;;;;;;;12.37;7.87;;;11.90;81.90;;;;;;5047289;28;20206;-77
2021/10/30 05:42:41;;;;;;;13.17;8.17;;;11.90;82.30;;;;;;5043193;28;20168;-77
2021/10/30 05:45:08;;;;;;;15.60;8.07;;;12.00;81.20;;;;;;5037392;28;20171;-77
2021/10/30 05:47:35;;;;;;;13.00;8.50;;;12.00;80.90;;;;;;5040728;28;20509;-77
2021/10/30 05:50:01;;;;;;;14.20;8.70;;;12.00;79.60;;;;;;5042619;28;20438;-77
2021/10/30 05:52:27;;;;;;;13.60;9.07;;;12.00;81.20;;;;;;5040521;28;20446;-77
2021/10/30 05:54:52;;;;;;;15.07;8.50;;;11.90;82.00;;;;;;5039053;28;20461;-76
2021/10/30 05:57:18;;;;;;;17.63;8.23;;;12.00;82.00;;;;;;5044332;28;20605;-77
2021/10/30 05:59:43;;;;;;;10.80;8.80;;;12.00;82.40;;;;;;5048215;28;20267;-76
2021/10/30 06:02:12;;;;;;;21.10;8.10;;;12.00;82.90;;;;;;5048210;28;20214;-77
2021/10/30 06:04:39;;;;;;;11.23;8.37;;;12.00;84.40;;;;;;5040900;28;20196;-76
2021/10/30 06:07:05;;;;;;;13.93;8.87;;;11.90;84.90;;;;;;5051692;28;20410;-76
2021/10/30 06:09:31;;;;;;;11.83;8.17;;;11.90;85.40;;;;;;5050784;28;20436;-77
2021/10/30 06:11:57;;;;;;;11.40;8.60;;;11.90;85.80;;;;;;5047294;28;20446;-77
2021/10/30 06:14:22;;;;;;;10.33;7.57;;;11.90;85.90;;;;;;5049455;28;20286;-77
2021/10/30 06:16:48;;;;;;;12.20;8.20;;;11.90;85.10;;;;;;5048394;28;20179;-78
2021/10/30 06:19:14;;;;;;;18.83;8.33;;;12.00;87.40;;;;;;5039813;28;20208;-78
2021/10/30 06:21:39;;;;;;;15.30;8.53;;;11.90;86.20;;;;;;5040224;28;20175;-78
2021/10/30 06:24:05;;;;;;;10.33;7.90;;;12.00;85.90;;;;;;5038082;28;20656;-77
2021/10/30 06:26:30;;;;;;;9.90;7.90;;;12.00;86.20;;;;;;5039413;28;20222;-78
2021/10/30 06:28:56;;;;;;;13.70;8.60;;;12.10;86.00;;;;;;5039505;28;20274;-77
2021/10/30 06:31:22;;;;;;;13.73;8.20;;;12.10;84.30;;;;;;5040209;28;20180;-79
2021/10/30 06:33:49;;;;;;;13.03;8.00;;;12.10;85.00;;;;;;5041343;28;20461;-77
2021/10/30 06:36:15;;;;;;;14.53;8.80;;;12.10;84.70;;;;;;5035643;28;20454;-77
2021/10/30 06:38:41;;;;;;;17.10;8.63;;;12.10;84.50;;;;;;5044665;28;20911;-77
2021/10/30 06:41:08;;;;;;;14.30;9.00;;;12.10;84.00;;;;;;5035681;28;20397;-77
2021/10/30 06:43:35;;;;;;;15.97;8.00;;;12.20;81.10;;;;;;5033210;28;20962;-76
2021/10/30 06:46:00;;;;;;;12.50;7.30;;;12.20;79.40;;;;;;5041029;28;20878;-77
2021/10/30 06:48:26;;;;;;;10.60;8.43;;;12.30;77.10;;;;;;5033099;28;20418;-79
2021/10/30 06:50:53;;;;;;;9.87;7.50;;;12.30;75.10;;;;;;5041660;28;20206;-77
2021/10/30 06:53:19;;;;;;;16.13;8.03;;;12.30;73.40;;;;;;5039374;28;20160;-79
2021/10/30 06:55:47;;;;;;;11.30;7.57;;;12.30;71.40;;;;;;5038047;28;20433;-78
2021/10/30 06:58:13;;;;;;;10.83;8.03;;;12.30;70.70;;;;;;5039387;28;20493;-81
2021/10/30 07:00:40;;;;;;;18.83;8.07;;;12.40;68.50;;;;;;5039391;28;20500;-83
2021/10/30 07:03:07;;;;;;;12.10;7.37;;;12.40;67.20;;;;;;5042129;28;20179;-78
2021/10/30 07:05:33;;;;;;;10.43;7.77;;;12.50;65.00;;;;;;5039840;28;21017;-83
2021/10/30 07:07:58;;;;;;;24.63;7.43;;;12.40;65.30;;;;;;5042883;28;20522;-75
2021/10/30 07:10:24;;;;;;;17.70;7.47;;;12.40;68.20;;;;;;5040562;28;20203;-77
2021/10/30 07:12:49;;;;;;;13.93;8.53;;;12.40;66.10;;;;;;5038269;28;20200;-78
2021/10/30 07:15:15;;;;;;;11.03;7.10;;;12.40;65.20;;;;;;5048598;28;20577;-80
2021/10/30 07:17:41;;;;;;;11.10;7.07;;;12.40;66.10;;;;;;5038855;28;20176;-78
2021/10/30 07:20:08;;;;;;;15.83;8.20;;;12.40;63.50;;;;;;5039003;28;20215;-79
2021/10/30 07:22:59;;;;;;;8.30;6.27;;;12.50;63.50;;;;;;5042045;28;20818;-78
2021/10/30 07:25:25;;;;;;;19.93;7.73;;;12.50;63.70;;;;;;5029972;28;20427;-79
2021/10/30 07:27:52;;;;;;;15.83;8.33;;;12.50;61.60;;;;;;5043851;28;20437;-80
2021/10/30 07:30:19;;;;;;;12.30;8.00;;;12.50;62.50;;;;;;5049301;28;20198;-79
2021/10/30 07:32:45;;;;;;;10.27;7.67;;;12.50;60.90;;;;;;5040851;28;20513;-79
2021/10/30 07:35:11;;;;;;;12.63;8.00;;;12.50;61.50;;;;;;5037853;28;20547;-79
2021/10/30 07:37:37;;;;;;;9.70;6.70;;;12.50;60.70;;;;;;5041284;28;20191;-79
2021/10/30 07:40:06;;;;;;;17.80;7.53;;;12.50;62.40;;;;;;5040122;28;20549;-79
2021/10/30 07:42:32;;;;;;;13.63;7.90;;;12.50;61.80;;;;;;5032215;28;20423;-77
2021/10/30 07:44:58;;;;;;;14.70;8.63;;;12.50;61.30;;;;;;5032354;28;20794;-77
2021/10/30 07:47:24;;;;;;;10.13;7.10;;;12.50;61.20;;;;;;5033674;28;20180;-78
2021/10/30 07:49:50;;;;;;;10.23;7.10;;;12.50;61.70;;;;;;5033231;28;20464;-78
2021/10/30 07:52:24;;;;;;;11.40;7.40;;;12.60;60.60;;;;;;5035888;28;20438;-78
2021/10/30 07:54:50;;;;;;;11.60;7.87;;;12.60;60.70;;;;;;5035459;28;20260;-78
2021/10/30 07:57:16;;;;;;;11.90;8.60;;;12.60;61.90;;;;;;5032710;28;20431;-78
2021/10/30 07:59:42;;;;;;;12.30;7.67;;;12.50;61.60;;;;;;5032148;28;20267;-78
2021/10/30 08:02:08;;;;;;;14.27;7.20;;;12.50;61.80;;;;;;5032481;28;20430;-78
2021/10/30 08:04:34;;;;;;;14.30;8.03;;;12.60;60.90;;;;;;5015140;28;20261;-78
2021/10/30 08:07:00;;;;;;;12.70;7.43;;;12.60;59.60;;;;;;5030726;28;20785;-77
2021/10/30 08:09:26;;;;;;;12.77;7.83;;;12.60;60.20;;;;;;5031163;28;20450;-78
2021/10/30 08:11:52;;;;;;;13.43;7.00;;;12.60;60.40;;;;;;5029523;28;20250;-77
2021/10/30 08:14:17;;;;;;;14.20;8.13;;;12.70;58.10;;;;;;5030619;28;20889;-76
2021/10/30 08:16:43;;;;;;;15.10;7.40;;;12.70;57.80;;;;;;5030449;28;20433;-79
2021/10/30 08:19:09;;;;;;;13.80;7.67;;;12.80;57.60;;;;;;5035891;28;20591;-78
2021/10/30 08:21:35;;;;;;;10.63;6.73;;;12.80;58.10;;;;;;5030513;28;20183;-78
2021/10/30 08:24:02;;;;;;;12.73;7.40;;;12.80;57.80;;;;;;5023494;28;20590;-78
2021/10/30 08:26:29;;;;;;;12.30;8.00;;;12.80;57.20;;;;;;5031069;28;20441;-78
2021/10/30 08:28:54;;;;;;;14.70;7.90;;;12.80;56.40;;;;;;5030770;28;20466;-78
2021/10/30 08:31:20;;;;;;;16.10;8.17;;;12.80;57.20;;;;;;5030858;28;20915;-76
2021/10/30 08:33:46;;;;;;;11.13;8.00;;;12.90;56.60;;;;;;5030179;28;20212;-77
2021/10/30 08:36:11;;;;;;;13.57;8.33;;;13.00;55.90;;;;;;5028605;28;20195;-77
2021/10/30 08:38:37;;;;;;;21.23;8.27;;;13.00;55.80;;;;;;5031901;28;20508;-76
2021/10/30 08:41:04;;;;;;;19.63;8.40;;;13.00;56.50;;;;;;5028623;28;20187;-78
2021/10/30 08:43:30;;;;;;;15.50;8.73;;;13.10;56.20;;;;;;5031944;28;20182;-77
2021/10/30 08:45:57;;;;;;;10.17;6.93;;;13.20;54.20;;;;;;5031957;28;20434;-76
2021/10/30 08:48:26;;;;;;;12.10;7.20;;;13.10;55.30;;;;;;5035136;28;20438;-79
2021/10/30 08:50:53;;;;;;;13.73;8.17;;;13.10;55.40;;;;;;5023415;28;20500;-78
2021/10/30 08:53:20;;;;;;;13.43;8.80;;;13.10;55.40;;;;;;5029356;28;20475;-75
2021/10/30 08:55:46;;;;;;;11.37;8.20;;;13.10;55.90;;;;;;5030989;28;20470;-77
2021/10/30 08:58:14;;;;;;;14.07;8.10;;;13.20;56.00;;;;;;5032004;28;20398;-76
2021/10/30 09:00:46;;;;;;;12.30;7.37;;;13.10;58.20;;;;;;5031555;28;20466;-76
2021/10/30 09:03:15;;;;;;;12.77;7.93;;;13.10;58.80;;;;;;5015889;28;20503;-79
2021/10/30 09:05:42;;;;;;;10.57;8.03;;;13.10;59.30;;;;;;5030998;28;20489;-77
2021/10/30 09:08:11;;;;;;;14.03;8.20;;;13.10;59.20;;;;;;5030650;28;20449;-76
2021/10/30 09:10:47;;;;;;;11.67;8.50;;;13.10;60.20;;;;;;5026970;28;20442;-76
2021/10/30 09:13:13;;;;;;;13.47;7.70;;;13.10;59.50;;;;;;5028347;28;20418;-78
2021/10/30 09:15:49;;;;;;;10.47;8.40;;;13.00;62.00;;;;;;5035492;28;20502;-77
2021/10/30 09:18:19;;;;;;;15.23;8.00;;;13.10;62.30;;;;;;5030195;28;20435;-75
2021/10/30 09:20:49;;;;;;;11.77;8.13;;;13.00;65.00;;;;;;5029779;28;20828;-76
2021/10/30 09:23:20;;;;;;;15.43;7.50;;;13.00;65.20;;;;;;5029336;28;20750;-75
2021/10/30 09:25:58;;;;;;;10.20;7.80;;;13.00;65.70;;;;;;5031785;28;20414;-75
2021/10/30 09:28:26;;;;;;;11.63;7.10;;;13.00;65.90;;;;;;5023272;28;20894;-74
2021/10/30 09:31:00;;;;;;;9.10;7.40;;;13.10;65.60;;;;;;5029316;28;20474;-75
2021/10/30 09:33:29;;;;;;;12.70;7.60;;;13.10;65.00;;;;;;5025113;28;20908;-75
2021/10/30 09:35:56;;;;;;;15.23;8.83;;;13.10;66.50;;;;;;5026554;28;20584;-75
2021/10/30 09:38:21;;;;;;;12.20;7.67;;;13.10;67.20;;;;;;5031834;28;20442;-77
2021/10/30 09:40:47;;;;;;;12.40;7.90;;;13.10;65.40;;;;;;5032891;28;20948;-76
2021/10/30 09:43:20;;;;;;;13.63;7.93;;;13.20;65.30;;;;;;5020933;28;20176;-75
2021/10/30 09:45:55;;;;;;;20.13;11.10;;;13.20;65.00;;;;;;5031023;28;20613;-77
2021/10/30 09:48:24;;;;;;;14.13;8.57;;;13.20;64.30;;;;;;5023070;28;20446;-79
2021/10/30 09:50:57;;;;;;;15.33;8.23;;;13.30;63.60;;;;;;5024455;28;20450;-73
2021/10/30 09:53:23;;;;;;;11.60;8.40;;;13.30;62.90;;;;;;5030290;28;20885;-73
2021/10/30 09:56:11;;;;;;;18.60;7.70;;;13.30;62.80;;;;;;5032483;28;20440;-73
2021/10/30 09:58:42;;;;;;;10.90;7.47;;;13.40;62.90;;;;;;5036064;28;20179;-78
2021/10/30 10:01:11;;;;;;;17.37;8.80;;;13.60;58.40;;;;;;5043507;28;20469;-78
2021/10/30 10:03:38;;;;;;;19.40;9.60;;;13.60;57.70;;;;;;5037534;28;20394;-77
2021/10/30 10:06:07;;;;;;;13.20;8.60;;;13.60;58.70;;;;;;5039773;28;20427;-78
2021/10/30 10:08:41;;;;;;;11.90;8.10;;;13.60;58.90;;;;;;5035962;28;20842;-78
2021/10/30 10:11:11;;;;;;;12.87;8.13;;;13.60;59.50;;;;;;5042778;28;20391;-77
2021/10/30 10:13:39;;;;;;;19.77;8.20;;;13.60;58.00;;;;;;5041691;28;20418;-77
2021/10/30 10:16:08;;;;;;;11.67;7.60;;;13.60;58.20;;;;;;5041115;28;20404;-78
2021/10/30 10:18:35;;;;;;;9.37;7.30;;;13.60;60.60;;;;;;5036455;28;20429;-79
2021/10/30 10:21:01;;;;;;;16.67;8.87;;;13.60;59.60;;;;;;5034733;28;20406;-76
2021/10/30 10:23:27;;;;;;;15.33;8.07;;;13.60;59.50;;;;;;5036233;28;20472;-73
2021/10/30 10:25:56;;;;;;;13.20;8.73;;;13.70;60.00;;;;;;5037117;28;20417;-79
2021/10/30 10:29:00;;;;;;;13.63;8.10;;;13.70;61.20;;;;;;5039059;28;20174;-78
2021/10/30 10:31:26;;;;;;;16.37;8.37;;;13.80;60.00;;;;;;5040311;28;20415;-79
2021/10/30 10:34:09;;;;;;;20.27;9.50;;;13.90;59.70;;;;;;5038622;28;20433;-78
2021/10/30 10:36:37;;;;;;;12.73;7.93;;;13.80;59.50;;;;;;5038435;28;20190;-76
2021/10/30 10:39:03;;;;;;;16.30;7.47;;;13.80;59.30;;;;;;5034475;28;20445;-77
2021/10/30 10:41:37;;;;;;;11.97;8.13;;;13.70;59.30;;;;;;5033717;28;20529;-75
2021/10/30 10:44:36;;;;;;;17.07;9.43;;;13.70;58.90;;;;;;5034533;28;20208;-75
2021/10/30 10:47:03;;;;;;;15.40;8.07;;;13.80;57.90;;;;;;4997974;28;20435;-76
2021/10/30 10:52:10;;;;;;;11.00;7.97;;;13.70;59.60;;;;;;5042210;28;20430;-79
2021/10/30 10:54:58;;;;;;;14.20;8.13;;;13.70;58.80;;;;;;5038893;28;20468;-78
2021/10/30 10:57:28;;;;;;;16.20;9.90;;;13.60;57.70;;;;;;5040338;28;20413;-77
2021/10/30 11:00:05;;;;;;;11.80;8.80;;;13.60;56.80;;;;;;5038267;28;20947;-78
2021/10/30 11:02:58;;;;;;;16.90;9.97;;;13.40;59.60;;;;;;5037121;28;20414;-79
2021/10/30 11:05:33;;;;;;;10.93;7.80;;;13.30;61.30;;;;;;5035389;28;20896;-77
2021/10/30 11:08:00;;;;;;;11.50;7.80;;;13.30;60.10;;;;;;5036190;28;20763;-78
2021/10/30 11:10:32;;;;;;;16.37;9.00;;;13.30;60.20;;;;;;5034732;28;20402;-76
2021/10/30 11:13:00;;;;;;;13.40;9.40;;;13.20;60.70;;;;;;5035300;28;20398;-76
2021/10/30 11:15:43;;;;;;;13.90;9.17;;;13.20;61.30;;;;;;5035673;28;20465;-78
2021/10/30 11:18:22;;;;;;;13.97;8.40;;;13.10;62.90;;;;;;5035758;28;20410;-78
2021/10/30 11:21:12;;;;;;;14.10;8.20;;;13.20;60.10;;;;;;5034714;28;20481;-79
2021/10/30 11:23:55;;;;;;;13.23;8.97;;;13.30;60.20;;;;;;5034992;28;20794;-78
2021/10/30 11:26:27;;;;;;;16.53;10.20;;;13.30;61.00;;;;;;5023180;28;20513;-78
2021/10/30 11:28:53;;;;;;;15.90;9.67;;;13.30;60.70;;;;;;5027922;28;20914;-76
2021/10/30 11:31:24;;;;;;;12.60;8.90;;;13.30;59.90;;;;;;5032954;28;20435;-78
2021/10/30 11:34:07;;;;;;;12.53;8.10;;;13.30;58.90;;;;;;5034464;28;20454;-77
2021/10/30 11:36:37;;;;;;;14.50;9.33;;;13.20;59.40;;;;;;5033333;28;20434;-77
2021/10/30 11:39:05;;;;;;;18.00;9.73;;;13.20;60.50;;;;;;5032501;28;20486;-77
2021/10/30 11:41:33;;;;;;;14.50;7.70;;;13.20;61.30;;;;;;5035232;28;20418;-78
2021/10/30 11:44:08;;;;;;;16.00;9.53;;;13.20;61.20;;;;;;5037085;28;20443;-79
2021/10/30 11:46:38;;;;;;;10.90;8.40;;;13.20;60.00;;;;;;5035426;28;20500;-77
2021/10/30 11:49:04;;;;;;;15.13;8.57;;;13.20;60.40;;;;;;5032924;28;20453;-78
2021/10/30 11:51:35;;;;;;;20.43;9.27;;;13.10;59.70;;;;;;5027439;28;20426;-77
2021/10/30 11:54:02;;;;;;;13.60;9.30;;;13.10;60.70;;;;;;5034900;28;20548;-77
2021/10/30 11:56:29;;;;;;;14.00;9.93;;;13.10;61.80;;;;;;5052580;28;20869;-77
2021/10/30 11:59:01;;;;;;;18.27;10.70;;;13.00;62.60;;;;;;5039743;28;20439;-77
2021/10/30 12:01:30;;;;;;;15.17;8.70;;;13.00;62.50;;;;;;5038668;28;20430;-77
2021/10/30 12:04:01;;;;;;;14.07;9.13;;;13.10;60.50;;;;;;5035726;28;20434;-77
2021/10/30 12:06:29;;;;;;;14.43;10.00;;;13.10;60.60;;;;;;5033819;28;20505;-78
2021/10/30 12:08:58;;;;;;;19.10;10.20;;;13.10;62.90;;;;;;5036757;28;20451;-77
2021/10/30 12:11:25;;;;;;;15.53;10.20;;;13.20;61.10;;;;;;5039592;28;20423;-78
2021/10/30 12:13:54;;;;;;;14.17;9.30;;;13.20;63.30;;;;;;5039316;28;20516;-77
2021/10/30 12:16:20;;;;;;;17.77;11.37;;;13.20;63.30;;;;;;5037451;28;20473;-77
2021/10/30 12:18:46;;;;;;;18.20;9.37;;;13.30;62.40;;;;;;5035485;28;20862;-78
2021/10/30 12:21:13;;;;;;;15.33;10.43;;;13.50;61.20;;;;;;5031232;28;20421;-77
2021/10/30 12:24:09;;;;;;;15.00;10.70;;;13.60;61.30;;;;;;5032266;28;20203;-77
2021/10/30 12:26:52;;;;;;;15.33;9.70;;;13.60;58.70;;;;;;5029292;28;20450;-80
2021/10/30 12:29:18;;;;;;;17.67;10.63;;;13.60;60.30;;;;;;5038396;28;20451;-77
2021/10/30 12:32:05;;;;;;;15.00;9.27;;;13.60;60.10;;;;;;5042981;28;20423;-79
2021/10/30 12:34:44;;;;;;;20.27;9.97;;;13.70;57.00;;;;;;5033735;28;20751;-77
2021/10/30 12:37:13;;;;;;;16.63;9.50;;;13.70;56.30;;;;;;5031750;28;20438;-77
2021/10/30 12:39:40;;;;;;;15.37;9.60;;;13.60;58.30;;;;;;5031607;28;20443;-76
2021/10/30 12:42:14;;;;;;;22.57;10.67;;;13.60;58.40;;;;;;5031971;28;20410;-77
2021/10/30 12:44:40;;;;;;;13.77;9.30;;;13.60;59.70;;;;;;5034693;28;20415;-79